Butes — A8UR6 — position and weather

sailwx.info

Track history (hours):
 
Tides and Currents Weather Stations Pressure Air Temp Water Temp Dewpoint Dewpoint Depression Visibility Wind Speed Wind Dir Waves Ship Positions

Butes

Last reported at 2015-Jan-20 18:13 UTC. Time now 2015-Jan-29 16:26 UTC.
Position N 39°14' W 009°51'.
Warning: this ship's position is 8 days out of date.

Length 90 m; draft 5.7 m.

Type: Cargo ship. MMSI: 636091937.

Date/timePositionNaut miles runAvg speedWind from/ knotsBaromVisibWave heightAir tempDewpointWater temp
2015-Jan-20 18:13N 39°14' W 009°51'4 4.0
2015-Jan-20 17:06N 39°09' W 009°51'3 3.8
2015-Jan-20 16:21N 39°06' W 009°50'3 3.9
2015-Jan-20 15:30N 39°03' W 009°50'4 4.1
2015-Jan-20 14:30N 38°59' W 009°50'5 4.2
2015-Jan-20 13:18N 38°54' W 009°50'3 4.2
2015-Jan-20 12:32N 38°51' W 009°50'5 4.6
2015-Jan-20 11:32N 38°46' W 009°51'4 4.2
2015-Jan-20 10:33N 38°42' W 009°50'4 4.0
2015-Jan-20 09:34N 38°38' W 009°49'4 3.8
2015-Jan-20 08:33N 38°34' W 009°48'4 4.0
2015-Jan-20 07:33N 38°30' W 009°46'4 4.1
2015-Jan-20 06:33N 38°26' W 009°46'5 5.0
2015-Jan-20 05:33N 38°22' W 009°44'24 6.0
2015-Jan-20 01:32N 37°58' W 009°38'6 5.8
2015-Jan-20 00:33N 37°52' W 009°36'6 5.5
2015-Jan-19 23:33N 37°47' W 009°34'5 5.3
2015-Jan-19 22:33N 37°42' W 009°33'6 5.1
2015-Jan-19 21:22N 37°36' W 009°31'  
2015-Jan-17 15:07N 35°55' W 005°19'2 2.6
2015-Jan-17 14:31N 35°54' W 005°19'0 0.0
2015-Jan-17 13:31N 35°54' W 005°19'0 0.0
2015-Jan-17 12:31N 35°54' W 005°19'0 0.0
2015-Jan-17 11:31N 35°54' W 005°19'1 0.7
2015-Jan-17 10:28N 35°55' W 005°20'0 0.0
2015-Jan-17 09:31N 35°55' W 005°20'0 0.0
2015-Jan-17 08:28N 35°55' W 005°20'0 0.0
2015-Jan-17 07:31N 35°55' W 005°20'1 1.3
2015-Jan-17 06:33N 35°55' W 005°19'  
2015-Jan-14 10:33N 37°08' E 003°46'28 7.1
2015-Jan-14 06:33N 37°12' E 004°21'8 6.9
2015-Jan-14 05:27N 37°13' E 004°30'6 7.0
2015-Jan-14 04:33N 37°15' E 004°38'132 7.3
2015-Jan-13 10:22N 37°33' E 007°23'  
2015-Jan-11 02:05N 36°52' E 013°37'3 5.5
2015-Jan-11 01:34N 36°52' E 013°41'6 5.6
2015-Jan-11 00:33N 36°50' E 013°48'5 5.1
2015-Jan-10 23:33N 36°49' E 013°54'5 4.6
2015-Jan-10 22:33N 36°48' E 013°59'4 4.3
2015-Jan-10 21:33N 36°47' E 014°05'4 4.4
2015-Jan-10 20:33N 36°45' E 014°10'5 4.8
2015-Jan-10 19:33N 36°44' E 014°16'5 5.2
2015-Jan-10 18:33N 36°43' E 014°22'  
Track history (hours):
 
Tides and Currents Weather Stations Pressure Air Temp Water Temp Dewpoint Dewpoint Depression Visibility Wind Speed Wind Dir Waves Ship Positions

Butes

Last reported at 2015-Jan-20 18:13 UTC. Time now 2015-Jan-29 16:26 UTC.
Position N 39°14' W 009°51'.
Warning: this ship's position is 8 days out of date.

Length 90 m; draft 5.7 m.

Type: Cargo ship. MMSI: 636091937.

Date/timePositionNaut miles runAvg speedWind from/ knotsBaromVisibWave heightAir tempDewpointWater temp
2015-Jan-20 18:13N 39°14' W 009°51'4 4.0
2015-Jan-20 17:06N 39°09' W 009°51'3 3.8
2015-Jan-20 16:21N 39°06' W 009°50'3 3.9
2015-Jan-20 15:30N 39°03' W 009°50'4 4.1
2015-Jan-20 14:30N 38°59' W 009°50'5 4.2
2015-Jan-20 13:18N 38°54' W 009°50'3 4.2
2015-Jan-20 12:32N 38°51' W 009°50'5 4.6
2015-Jan-20 11:32N 38°46' W 009°51'4 4.2
2015-Jan-20 10:33N 38°42' W 009°50'4 4.0
2015-Jan-20 09:34N 38°38' W 009°49'4 3.8
2015-Jan-20 08:33N 38°34' W 009°48'4 4.0
2015-Jan-20 07:33N 38°30' W 009°46'4 4.1
2015-Jan-20 06:33N 38°26' W 009°46'5 5.0
2015-Jan-20 05:33N 38°22' W 009°44'24 6.0
2015-Jan-20 01:32N 37°58' W 009°38'6 5.8
2015-Jan-20 00:33N 37°52' W 009°36'6 5.5
2015-Jan-19 23:33N 37°47' W 009°34'5 5.3
2015-Jan-19 22:33N 37°42' W 009°33'6 5.1
2015-Jan-19 21:22N 37°36' W 009°31'  
2015-Jan-17 15:07N 35°55' W 005°19'2 2.6
2015-Jan-17 14:31N 35°54' W 005°19'0 0.0
2015-Jan-17 13:31N 35°54' W 005°19'0 0.0
2015-Jan-17 12:31N 35°54' W 005°19'0 0.0
2015-Jan-17 11:31N 35°54' W 005°19'1 0.7
2015-Jan-17 10:28N 35°55' W 005°20'0 0.0
2015-Jan-17 09:31N 35°55' W 005°20'0 0.0
2015-Jan-17 08:28N 35°55' W 005°20'0 0.0
2015-Jan-17 07:31N 35°55' W 005°20'1 1.3
2015-Jan-17 06:33N 35°55' W 005°19'  
2015-Jan-14 10:33N 37°08' E 003°46'28 7.1
2015-Jan-14 06:33N 37°12' E 004°21'8 6.9
2015-Jan-14 05:27N 37°13' E 004°30'6 7.0
2015-Jan-14 04:33N 37°15' E 004°38'132 7.3
2015-Jan-13 10:22N 37°33' E 007°23'  
2015-Jan-11 02:05N 36°52' E 013°37'3 5.5
2015-Jan-11 01:34N 36°52' E 013°41'6 5.6
2015-Jan-11 00:33N 36°50' E 013°48'5 5.1
2015-Jan-10 23:33N 36°49' E 013°54'5 4.6
2015-Jan-10 22:33N 36°48' E 013°59'4 4.3
2015-Jan-10 21:33N 36°47' E 014°05'4 4.4
2015-Jan-10 20:33N 36°45' E 014°10'5 4.8
2015-Jan-10 19:33N 36°44' E 014°16'5 5.2
2015-Jan-10 18:33N 36°43' E 014°22'  

Dump ship's entire track history